Terminal Aerodrome Forecast
Issued by NWS Lake Charles, LA

Home | Current Version | Previous Version | Text Only | Print | Product List | Glossary On
Versions: 1 2 3 4 5 6 7 8 9 10 11 12 13 14 15
000
FTUS44 KLCH 050520
TAFLFT
TAF
KLFT 050520Z 0506/0606 VRB03KT P6SM SCT060 BKN200
     FM051200 VRB05KT P6SM VCSH BKN035 OVC170
     FM051600 14005KT P6SM VCTS SCT022CB BKN035 OVC180
     FM060100 18004KT P6SM BKN190=

USA.gov is the U.S. government's official web portal to all federal, state and local government web resources and services.